Terminal Aerodrome Forecast
Issued by NWS Cleveland, OH

Home | Current Version | Previous Version | Graphics & Text | Print | Product List | Glossary On
Versions: 1 2 3 4 5 6 7 8 9 10 11 12 13 14 15 16 17 18 19
000
FTUS41 KCLE 250800 AAA
TAFERI
TAF AMD
KERI 250823Z 2508/2606 23018G28KT P6SM SCT025 OVC040
     FM251100 24015G25KT P6SM OVC025
      TEMPO 2511/2514 4SM -RASN BR
     FM251900 22015G25KT P6SM OVC025
     FM260000 20008KT P6SM BKN025=

USA.gov is the U.S. government's official web portal to all federal, state and local government web resources and services.